Redlands, CA (92373)

2:25 PM PDT on September 02, 2014 (GMT -0700)
Redlands High School-Terriers | Change Station
CLOSE
Current Station
Personal Weather Station
Location: Redlands, CA
Elevation: 1505 ft
Nearby Weather Stations

Elev 1505 ft 34.05 °N, 117.17 °W | Updated 3 seconds ago

Clear
Clear
98.7 °F
Feels Like 96 °F
N
2.0
Wind Variable Wind from NNW
Gusts 7.0 mph

Today
High -- | Low -- °F
--% Chance of Precip.
Yesterday
High -- | Low -- °F
Precip. -- in
6:23 AM 7:13 PM
First Quarter, 55% visible
Pressure 29.81 in
Visibility 7.0 miles
Clouds Clear
Heat Index 96 °F
Dew Point 49 °F
Humidity 19%
Rainfall 0.00 in
Snow Depth Not available.
UV 0.0 out of 12
Pollen 7.00 out of 12
Ozone Good
Flu Activity Not available.
METAR KSBD 022047Z 32003KT 7SM SKC 34/05 A2981

More Conditions Fewer Conditions

Pressure 29.81 in
Visibility 7.0 miles
Clouds Clear
Heat Index 96 °F
Dew Point 49 °F
Humidity 19%
Rainfall 0.00 in
Snow Depth Not available.
UV 0.0 out of 12
Pollen 7.00 out of 12
Ozone Good
Flu Activity Not available.
METAR KSBD 022047Z 32003KT 7SM SKC 34/05 A2981

More Conditions Fewer Conditions

10-Day Weather Forecast

Almanac

Astronomy

Sep. 02, 2014 Rise Set
Actual Time 6:23 AM PDT 7:13 PM PDT
Civil Twilight 5:57 AM PDT 7:38 PM PDT
Nautical Twilight 5:27 AM PDT 8:08 PM PDT
Astronomical Twilight 4:56 AM PDT 8:39 PM PDT
Moon 1:52 PM PDT No Moon Set
Length of Visible Light 13h 40m
Length of Day
12h 50m
Tomorrow will be 2m 3s shorter.
First Quarter, 55% of the Moon is Illuminated
Today
First Quarter
Sep 8
Full
Sep 15
Last Quarter
Sep 24
New
Oct 1
First Quarter

Today's Extremes

State Highs State Lows

Community

WunderPhotos

Upload Photos

1,749,769 photos uploaded!

Nearby

Air Quality

  Air Quality AQ Index Pollutant
Yesterday Unhealthy for Sensitive Groups
OZONE
Current Good
OZONE
Wednesday Moderate
OZONE
Wednesday Good
PM10
Wednesday Good
CO
Wednesday Good
NO2

Snow Depth

Station Depth Elevation
Leavitt Meadows 0 in 7200 ft
Echo Peak 0 in 7800 ft
Fallen Leaf 0 in 6300 ft
CSS Lab 0 in 6900 ft
Adin Mountain 1 in 6200 ft

Earthquake Activity

City Distance Mag. Time & Date
Holtville, California 134 miles 2.5 5:43 PM PDT
2014-09-01
Holtville, California 136 miles 2.5 5:26 PM PDT
2014-09-01
Minimum magnitude displayed is 2.5.

Coastal Water Temperatures

Place Temperature
No Stations Reporting

Nearby Weather Stations